Terminal Aerodrome Forecast
Issued by NWS Mt. Holly, NJ

Home | Current Version | Previous Version | Text Only | Print | Product List | Glossary On
Versions: 1 2 3 4 5 6 7 8 9 10 11 12 13 14 15 16 17 18 19 20 21 22 23 24 25 26 27 28 29 30 31 32 33 34 35 36 37 38 39 40 41 42 43 44 45 46 47 48 49 50
950
FTUS41 KPHI 201759 AAA
TAFABE
TAF AMD
KABE 201759Z 2018/2118 12004KT 6SM -RA SCT030 OVC070
      TEMPO 2018/2020 3SM RA BR BKN030
     FM202000 14006KT 3SM -RA BR BKN020 OVC040
     FM202200 12004KT 3SM -DZ SCT007 OVC015
     FM210100 VRB03KT 5SM BR OVC007
     FM210300 VRB02KT 3/4SM BR OVC002
     FM211600 23005KT 3SM BR BKN008=

USA.gov is the U.S. government's official web portal to all federal, state and local government web resources and services.